createdAt,value
2019-01-25T00:04:39.970Z,98074.06
2019-01-25T00:09:45.164Z,98073.73
2019-01-25T00:14:50.964Z,98072.20
2019-01-25T00:19:56.301Z,98070.45
2019-01-25T00:25:01.603Z,98079.81
2019-01-25T00:30:09.088Z,98078.78
2019-01-25T00:35:14.333Z,98078.42
2019-01-25T00:40:21.276Z,98080.78
2019-01-25T00:45:26.478Z,98084.52
2019-01-25T00:50:31.780Z,98085.22
2019-01-25T00:55:37.149Z,98083.34
2019-01-25T01:00:42.656Z,98089.81
2019-01-25T01:05:48.246Z,98094.48
2019-01-25T01:10:53.493Z,98096.02
2019-01-25T01:15:58.693Z,98093.32
2019-01-25T01:21:04.369Z,98106.23
2019-01-25T01:26:10.557Z,98104.24
2019-01-25T01:31:15.769Z,98109.77
2019-01-25T01:36:21.372Z,98110.58
2019-01-25T01:41:26.931Z,98120.44
2019-01-25T01:46:33.104Z,98122.30
2019-01-25T01:51:39.670Z,98121.50
2019-01-25T01:56:45.405Z,98116.55
2019-01-25T02:01:50.930Z,98121.48
2019-01-25T02:06:57.309Z,98122.20
2019-01-25T02:12:02.923Z,98123.59
2019-01-25T02:17:08.478Z,98130.55
2019-01-25T02:22:13.726Z,98132.76
2019-01-25T02:27:19.071Z,98137.20
2019-01-25T02:32:25.435Z,98129.12
2019-01-25T02:37:30.642Z,98135.45
2019-01-25T02:42:36.161Z,98123.83
2019-01-25T02:47:41.706Z,98129.10
2019-01-25T02:52:47.307Z,98122.31
2019-01-25T02:57:53.598Z,98129.36
2019-01-25T03:02:58.792Z,98123.70
2019-01-25T03:08:04.003Z,98128.07
2019-01-25T03:13:09.209Z,98123.23
2019-01-25T03:18:15.122Z,98123.37
2019-01-25T03:23:20.332Z,98113.16
2019-01-25T03:28:25.547Z,98115.16
2019-01-25T03:33:30.744Z,98118.66
2019-01-25T03:38:36.338Z,98123.50
2019-01-25T03:43:41.531Z,98118.66
2019-01-25T03:48:47.229Z,98123.70
2019-01-25T03:53:52.550Z,98127.48
2019-01-25T03:58:58.088Z,98129.94
2019-01-25T04:04:03.293Z,98131.80
2019-01-25T04:09:10.839Z,98129.67
2019-01-25T04:14:16.052Z,98138.52
2019-01-25T04:19:21.592Z,98139.33
2019-01-25T04:24:26.838Z,98131.95
2019-01-25T04:29:32.046Z,98133.57
2019-01-25T04:34:37.352Z,98135.69
2019-01-25T04:39:42.968Z,98138.27
2019-01-25T04:44:48.293Z,98142.84
2019-01-25T04:49:53.908Z,98141.19
2019-01-25T04:55:01.581Z,98141.32
2019-01-25T05:00:08.333Z,98146.27
2019-01-25T05:05:14.070Z,98148.59
2019-01-25T05:10:19.274Z,98154.58
2019-01-25T05:15:25.342Z,98149.66
2019-01-25T05:20:30.864Z,98154.69
2019-01-25T05:25:36.436Z,98163.14
2019-01-25T05:30:51.229Z,98155.52
2019-01-25T05:35:56.523Z,98158.31
2019-01-25T05:41:01.847Z,98163.84
2019-01-25T05:46:07.086Z,98165.70
2019-01-25T05:51:12.704Z,98168.29
2019-01-25T05:56:17.909Z,98167.95
2019-01-25T06:01:23.086Z,98171.36
2019-01-25T06:06:28.279Z,98177.70
2019-01-25T06:11:37.978Z,98175.45
2019-01-25T06:16:43.665Z,98180.16
2019-01-25T06:21:50.551Z,98179.69
2019-01-25T06:26:55.750Z,98177.81
2019-01-25T06:32:01.410Z,98186.36
2019-01-25T06:37:06.613Z,98193.64
2019-01-25T06:42:11.864Z,98197.28
2019-01-25T06:47:17.150Z,98205.38
2019-01-25T06:52:22.683Z,98203.76
2019-01-25T06:57:43.451Z,98207.86
2019-01-25T07:02:49.179Z,98205.64
2019-01-25T07:07:54.385Z,98214.57
2019-01-25T07:12:59.570Z,98221.03
2019-01-25T07:18:04.788Z,98214.57
2019-01-25T07:23:09.987Z,98222.44
2019-01-25T07:28:15.235Z,98227.13
2019-01-25T07:33:20.539Z,98223.62
2019-01-25T07:38:25.803Z,98231.23
2019-01-25T07:43:31.471Z,98234.63
2019-01-25T07:48:37.130Z,98237.23
2019-01-25T07:53:42.436Z,98232.75
2019-01-25T07:58:47.946Z,98230.16
2019-01-25T08:03:53.219Z,98231.20
2019-01-25T08:08:58.831Z,98236.72
2019-01-25T08:14:04.379Z,98243.30
2019-01-25T08:19:09.661Z,98252.33
2019-01-25T08:24:14.848Z,98248.81
2019-01-25T08:29:27.673Z,98248.67
2019-01-25T08:34:27.260Z,98257.70
2019-01-25T08:39:33.348Z,98262.52
2019-01-25T08:44:38.543Z,98262.39
2019-01-25T08:49:45.065Z,98272.65
2019-01-25T08:54:50.497Z,98270.39
2019-01-25T08:59:56.475Z,98271.25
2019-01-25T09:05:02.075Z,98275.94
2019-01-25T09:10:10.072Z,98269.58
2019-01-25T09:15:22.480Z,98271.78
2019-01-25T09:20:28.560Z,98267.91
2019-01-25T09:25:34.328Z,98263.87
2019-01-25T09:30:39.922Z,98258.18
2019-01-25T09:35:45.107Z,98266.38
2019-01-25T09:40:50.412Z,98261.04
2019-01-25T09:45:55.618Z,98262.53
2019-01-25T09:51:00.804Z,98269.40
2019-01-25T09:56:07.449Z,98266.61
2019-01-25T10:01:13.831Z,98268.92
2019-01-25T10:06:19.272Z,98265.61
2019-01-25T10:11:24.530Z,98276.75
2019-01-25T10:16:30.223Z,98275.45
2019-01-25T10:21:35.448Z,98270.73
2019-01-25T10:26:40.691Z,98257.28
2019-01-25T10:31:45.871Z,98253.55
2019-01-25T10:36:51.461Z,98252.15
2019-01-25T10:41:57.175Z,98243.64
2019-01-25T10:47:03.620Z,98241.28
2019-01-25T10:52:09.215Z,98249.36
2019-01-25T10:57:15.516Z,98248.90
2019-01-25T11:02:21.488Z,98243.82
2019-01-25T11:07:26.722Z,98244.84
2019-01-25T11:12:31.926Z,98238.00
2019-01-25T11:17:37.124Z,98234.31
2019-01-25T11:22:42.360Z,98238.38
2019-01-25T11:27:47.797Z,98229.58
2019-01-25T11:32:54.103Z,98217.47
2019-01-25T11:37:59.295Z,98213.52
2019-01-25T11:43:08.912Z,98216.75
2019-01-25T11:48:14.545Z,98213.44
2019-01-25T11:53:19.931Z,98226.98
2019-01-25T11:58:25.115Z,98217.45
2019-01-25T12:03:30.390Z,98208.25
2019-01-25T12:08:36.967Z,98210.11
2019-01-25T12:13:42.492Z,98208.03
2019-01-25T12:18:48.036Z,98201.66
2019-01-25T12:23:53.351Z,98209.70
2019-01-25T12:28:58.562Z,98207.20
2019-01-25T12:34:03.743Z,98213.68
2019-01-25T12:39:10.363Z,98214.52
2019-01-25T12:44:15.517Z,98209.42
2019-01-25T12:49:21.490Z,98201.16
2019-01-25T12:54:26.719Z,98199.53
2019-01-25T12:59:33.525Z,98187.27
2019-01-25T13:04:38.729Z,98187.69
2019-01-25T13:09:44.295Z,98187.59
2019-01-25T13:14:49.503Z,98181.11
2019-01-25T13:19:55.044Z,98171.44
2019-01-25T13:25:01.646Z,98166.64
2019-01-25T13:30:10.772Z,98158.41
2019-01-25T13:35:17.464Z,98156.61
2019-01-25T13:40:23.611Z,98164.37
2019-01-25T13:45:28.798Z,98166.59
2019-01-25T13:50:34.056Z,98164.36
2019-01-25T13:55:39.732Z,98167.42
2019-01-25T14:00:45.367Z,98166.37
2019-01-25T14:05:50.566Z,98166.95
2019-01-25T14:10:55.922Z,98149.62
2019-01-25T14:16:01.248Z,98159.51
2019-01-25T14:21:07.171Z,98160.86
2019-01-25T14:26:13.278Z,98164.74
2019-01-25T14:31:20.492Z,98168.17
2019-01-25T14:36:27.577Z,98169.28
2019-01-25T14:41:33.154Z,98175.67
2019-01-25T14:46:39.955Z,98166.11
2019-01-25T14:51:45.715Z,98164.25
2019-01-25T14:56:53.262Z,98162.45
2019-01-25T15:02:00.579Z,98157.29
2019-01-25T15:07:07.763Z,98165.47
2019-01-25T15:12:16.435Z,98166.16
2019-01-25T15:17:24.060Z,98168.33
2019-01-25T15:22:32.482Z,98173.66
2019-01-25T15:27:41.239Z,98159.83
2019-01-25T15:32:48.267Z,98165.60
2019-01-25T15:37:55.741Z,98163.82
2019-01-25T15:43:04.265Z,98171.31
2019-01-25T15:48:11.740Z,98161.12
2019-01-25T15:53:19.420Z,98158.96
2019-01-25T15:58:27.879Z,98167.91
2019-01-25T16:03:37.103Z,98170.63
2019-01-25T16:08:45.237Z,98170.54
2019-01-25T16:13:53.704Z,98181.59
2019-01-25T16:19:01.607Z,98192.75
2019-01-25T16:24:09.877Z,98201.68
2019-01-25T16:29:19.369Z,98206.73
2019-01-25T16:34:27.251Z,98202.37
2019-01-25T16:39:35.326Z,98209.76
2019-01-25T16:44:43.674Z,98213.17
2019-01-25T16:49:51.685Z,98223.70
2019-01-25T16:54:59.610Z,98207.73
2019-01-25T17:00:14.159Z,98200.94
2019-01-25T17:05:22.667Z,98197.15
2019-01-25T17:10:28.414Z,98192.78
2019-01-25T17:15:34.079Z,98181.67
2019-01-25T17:20:39.332Z,98188.24
2019-01-25T17:25:44.540Z,98185.08
2019-01-25T17:30:53.573Z,98179.59
2019-01-25T17:36:01.836Z,98169.27
2019-01-25T17:41:10.424Z,98162.12
2019-01-25T17:46:18.559Z,98157.20
2019-01-25T17:51:27.685Z,98154.50
2019-01-25T17:56:35.765Z,98161.90
2019-01-25T18:01:44.135Z,98162.23
2019-01-25T18:06:52.350Z,98144.88
2019-01-25T18:12:00.516Z,98146.88
2019-01-25T18:17:08.762Z,98136.09
2019-01-25T18:22:16.423Z,98135.97
2019-01-25T18:27:25.802Z,98136.67
2019-01-25T18:32:34.871Z,98143.72
2019-01-25T18:37:44.149Z,98129.64
2019-01-25T18:42:53.995Z,98121.90
2019-01-25T18:48:04.168Z,98126.22
2019-01-25T18:53:13.529Z,98114.51
2019-01-25T18:58:22.310Z,98104.05
2019-01-25T19:03:31.482Z,98104.17
2019-01-25T19:08:40.981Z,98112.13
2019-01-25T19:13:51.099Z,98110.23
2019-01-25T19:19:01.342Z,98094.39
2019-01-25T19:24:11.081Z,98082.59
2019-01-25T19:29:20.883Z,98071.41
2019-01-25T19:34:29.999Z,98084.59
2019-01-25T19:39:39.798Z,98097.11
2019-01-25T19:44:49.515Z,98086.68
2019-01-25T19:49:57.988Z,98072.17
2019-01-25T19:55:09.503Z,98057.63
2019-01-25T20:00:25.599Z,98050.02
2019-01-25T20:05:34.191Z,98061.84
2019-01-25T20:10:45.578Z,98048.55
2019-01-25T20:15:54.276Z,98053.59
2019-01-25T20:21:03.507Z,98051.03
2019-01-25T20:26:12.550Z,98038.98
2019-01-25T20:31:21.610Z,98035.20
2019-01-25T20:36:31.449Z,98023.66
2019-01-25T20:41:40.858Z,98026.59
2019-01-25T20:46:49.847Z,98008.25
2019-01-25T20:51:59.100Z,98019.98
2019-01-25T20:57:08.642Z,98019.70
2019-01-25T21:02:19.526Z,98007.59
2019-01-25T21:07:27.928Z,98001.41
2019-01-25T21:12:36.578Z,97982.08
2019-01-25T21:17:45.863Z,97982.98
2019-01-25T21:22:55.405Z,97974.02
2019-01-25T21:28:05.773Z,97976.55
2019-01-25T21:33:15.062Z,97973.02
2019-01-25T21:38:23.880Z,97960.02
2019-01-25T21:43:34.175Z,97932.16
2019-01-25T21:48:42.574Z,97925.38
2019-01-25T21:53:51.263Z,97903.50
2019-01-25T21:58:59.611Z,97893.71
2019-01-25T22:04:07.125Z,97891.80
2019-01-25T22:09:15.119Z,97884.22
2019-01-25T22:14:22.285Z,97886.19
2019-01-25T22:19:29.474Z,97862.27
2019-01-25T22:24:36.637Z,97851.58
2019-01-25T22:29:44.656Z,97854.17
2019-01-25T22:34:51.758Z,97841.90
2019-01-25T22:39:58.780Z,97836.63
2019-01-25T22:45:04.963Z,97840.94
2019-01-25T22:50:14.571Z,97821.45
2019-01-25T22:55:20.119Z,97808.91
2019-01-25T23:01:18.131Z,97784.83
2019-01-25T23:06:48.738Z,97772.13
2019-01-25T23:11:54.228Z,97773.19
2019-01-25T23:16:59.518Z,97757.69
2019-01-25T23:22:05.048Z,97740.89
2019-01-25T23:27:10.615Z,97732.75
2019-01-25T23:32:15.807Z,97722.59
2019-01-25T23:37:21.302Z,97706.41
2019-01-25T23:42:26.820Z,97704.73
2019-01-25T23:47:32.125Z,97692.13
2019-01-25T23:52:38.597Z,97688.28
2019-01-25T23:57:43.783Z,97677.80
